createdAt,value
2018-09-08T00:01:35.728Z,18.10
2018-09-08T00:04:04.156Z,18.18
2018-09-08T00:06:34.737Z,18.12
2018-09-08T00:09:05.137Z,18.11
2018-09-08T00:11:33.536Z,18.13
2018-09-08T00:14:02.273Z,18.23
2018-09-08T00:16:36.014Z,18.26
2018-09-08T00:19:09.771Z,18.22
2018-09-08T00:21:43.348Z,18.16
2018-09-08T00:24:16.829Z,18.02
2018-09-08T00:26:44.385Z,17.86
2018-09-08T00:29:19.844Z,17.69
2018-09-08T00:31:48.269Z,17.52
2018-09-08T00:34:16.677Z,17.42
2018-09-08T00:36:45.095Z,17.35
2018-09-08T00:39:13.549Z,17.46
2018-09-08T00:41:41.929Z,17.48
2018-09-08T00:44:10.352Z,17.46
2018-09-08T00:46:39.914Z,17.41
2018-09-08T00:49:08.341Z,17.37
2018-09-08T00:51:36.722Z,17.37
2018-09-08T00:54:05.198Z,17.38
2018-09-08T00:56:33.589Z,17.39
2018-09-08T00:59:02.922Z,17.39
2018-09-08T01:01:32.304Z,17.47
2018-09-08T01:04:00.693Z,17.53
2018-09-08T01:06:29.326Z,17.55
2018-09-08T01:08:57.752Z,17.71
2018-09-08T01:11:26.245Z,17.70
2018-09-08T01:13:54.749Z,17.70
2018-09-08T01:16:23.199Z,17.69
2018-09-08T01:18:51.589Z,17.73
2018-09-08T01:21:20.045Z,17.70
2018-09-08T01:23:51.124Z,17.68
2018-09-08T01:26:20.365Z,17.54
2018-09-08T01:28:49.349Z,17.56
2018-09-08T01:31:17.899Z,17.59
2018-09-08T01:33:46.356Z,17.62
2018-09-08T01:36:15.093Z,17.67
2018-09-08T01:38:43.482Z,17.61
2018-09-08T01:41:11.941Z,17.64
2018-09-08T01:43:40.345Z,17.50
2018-09-08T01:46:13.268Z,17.53
2018-09-08T01:48:41.700Z,17.50
2018-09-08T01:51:10.221Z,17.49
2018-09-08T01:53:38.600Z,17.43
2018-09-08T01:56:07.417Z,17.31
2018-09-08T01:58:35.846Z,17.31
2018-09-08T02:01:04.313Z,17.34
2018-09-08T02:03:32.840Z,17.35
2018-09-08T02:06:01.598Z,17.37
2018-09-08T02:08:30.447Z,17.41
2018-09-08T02:10:58.822Z,17.42
2018-09-08T02:13:27.229Z,17.48
2018-09-08T02:15:55.628Z,17.50
2018-09-08T02:18:24.066Z,17.54
2018-09-08T02:20:52.481Z,17.37
2018-09-08T02:23:20.930Z,17.41
2018-09-08T02:25:49.328Z,17.37
2018-09-08T02:28:17.766Z,17.45
2018-09-08T02:30:46.222Z,17.43
2018-09-08T02:33:14.681Z,17.49
2018-09-08T02:35:43.090Z,17.46
2018-09-08T02:38:11.501Z,17.51
2018-09-08T02:40:39.909Z,17.50
2018-09-08T02:43:08.316Z,17.42
2018-09-08T02:45:36.778Z,17.43
2018-09-08T02:48:05.218Z,17.43
2018-09-08T02:50:35.809Z,17.44
2018-09-08T02:53:03.653Z,17.43
2018-09-08T02:55:31.428Z,17.45
2018-09-08T02:57:59.004Z,17.46
2018-09-08T03:00:26.913Z,17.47
2018-09-08T03:02:54.569Z,17.51
2018-09-08T03:05:22.153Z,17.56
2018-09-08T03:07:49.465Z,17.50
2018-09-08T03:10:17.093Z,17.55
2018-09-08T03:12:44.341Z,17.46
2018-09-08T03:15:11.624Z,17.40
2018-09-08T03:17:41.042Z,17.33
2018-09-08T03:20:08.550Z,17.26
2018-09-08T03:22:35.784Z,17.35
2018-09-08T03:25:03.871Z,17.30
2018-09-08T03:27:31.102Z,17.34
2018-09-08T03:29:58.380Z,17.36
2018-09-08T03:32:25.612Z,17.34
2018-09-08T03:34:52.845Z,17.39
2018-09-08T03:37:20.115Z,17.41
2018-09-08T03:39:47.377Z,17.42
2018-09-08T03:42:14.646Z,17.41
2018-09-08T03:44:41.888Z,17.39
2018-09-08T03:47:09.585Z,17.44
2018-09-08T03:49:36.825Z,17.42
2018-09-08T03:52:04.090Z,17.39
2018-09-08T03:54:31.336Z,17.42
2018-09-08T03:56:58.611Z,17.37
2018-09-08T03:59:25.841Z,17.29
2018-09-08T04:01:53.120Z,17.30
2018-09-08T04:04:21.509Z,17.34
2018-09-08T04:06:49.929Z,17.28
2018-09-08T04:09:18.344Z,17.24
2018-09-08T04:11:46.808Z,17.13
2018-09-08T04:14:15.206Z,17.14
2018-09-08T04:16:43.969Z,17.18
2018-09-08T04:19:12.367Z,17.18
2018-09-08T04:21:40.761Z,17.18
2018-09-08T04:24:09.246Z,17.13
2018-09-08T04:26:37.634Z,17.13
2018-09-08T04:29:05.993Z,17.14
2018-09-08T04:31:34.357Z,17.07
2018-09-08T04:34:02.785Z,17.12
2018-09-08T04:36:31.187Z,17.23
2018-09-08T04:38:59.617Z,17.17
2018-09-08T04:41:28.417Z,17.26
2018-09-08T04:43:56.829Z,17.22
2018-09-08T04:46:25.248Z,17.26
2018-09-08T04:48:54.265Z,17.15
2018-09-08T04:51:23.141Z,17.18
2018-09-08T04:53:51.558Z,17.25
2018-09-08T04:56:19.977Z,17.19
2018-09-08T04:58:49.044Z,17.19
2018-09-08T05:01:17.456Z,17.22
2018-09-08T05:03:45.901Z,17.23
2018-09-08T05:06:14.326Z,17.30
2018-09-08T05:08:42.745Z,17.30
2018-09-08T05:11:11.146Z,17.24
2018-09-08T05:13:39.602Z,17.35
2018-09-08T05:16:08.123Z,17.31
2018-09-08T05:18:36.529Z,17.34
2018-09-08T05:21:04.892Z,17.23
2018-09-08T05:23:33.353Z,17.27
2018-09-08T05:26:01.733Z,17.26
2018-09-08T05:28:30.495Z,17.31
2018-09-08T05:30:58.861Z,17.32
2018-09-08T05:33:27.333Z,17.33
2018-09-08T05:35:55.795Z,17.44
2018-09-08T05:38:24.165Z,17.42
2018-09-08T05:40:52.577Z,17.55
2018-09-08T05:43:20.953Z,17.58
2018-09-08T05:45:49.369Z,17.69
2018-09-08T05:48:17.741Z,17.59
2018-09-08T05:50:46.188Z,17.66
2018-09-08T05:53:14.585Z,17.74
2018-09-08T05:55:43.017Z,17.72
2018-09-08T05:58:11.477Z,17.78
2018-09-08T06:00:39.944Z,17.76
2018-09-08T06:03:08.333Z,17.89
2018-09-08T06:05:36.760Z,17.93
2018-09-08T06:08:05.144Z,17.94
2018-09-08T06:10:33.567Z,17.95
2018-09-08T06:13:01.965Z,18.07
2018-09-08T06:15:30.612Z,18.02
2018-09-08T06:17:58.995Z,18.10
2018-09-08T06:20:27.425Z,18.10
2018-09-08T06:22:55.805Z,18.08
2018-09-08T06:25:24.282Z,18.08
2018-09-08T06:27:52.641Z,18.09
2018-09-08T06:30:21.026Z,18.15
2018-09-08T06:32:49.464Z,18.19
2018-09-08T06:35:17.969Z,18.25
2018-09-08T06:37:46.267Z,18.27
2018-09-08T06:40:14.673Z,18.21
2018-09-08T06:42:43.095Z,18.13
2018-09-08T06:45:11.549Z,18.13
2018-09-08T06:47:39.937Z,18.14
2018-09-08T06:50:08.375Z,18.25
2018-09-08T06:52:36.808Z,18.32
2018-09-08T06:57:58.087Z,18.50
2018-09-08T07:00:26.527Z,18.57
2018-09-08T07:02:54.986Z,18.70
2018-09-08T07:05:23.350Z,18.90
2018-09-08T07:07:51.761Z,19.12
2018-09-08T07:10:20.212Z,19.35
2018-09-08T07:12:48.620Z,19.51
2018-09-08T07:15:17.070Z,19.71
2018-09-08T07:17:45.504Z,19.68
2018-09-08T07:20:13.899Z,19.76
2018-09-08T07:22:42.321Z,19.88
2018-09-08T07:25:11.079Z,19.93
2018-09-08T07:27:39.501Z,19.84
2018-09-08T07:30:08.059Z,19.79
2018-09-08T07:32:36.441Z,19.75
2018-09-08T07:35:04.892Z,19.64
2018-09-08T07:37:33.286Z,19.52
2018-09-08T07:40:01.721Z,19.41
2018-09-08T07:42:30.105Z,19.35
2018-09-08T07:44:58.504Z,19.32
2018-09-08T07:47:26.894Z,19.38
2018-09-08T07:49:55.328Z,19.50
2018-09-08T07:52:23.729Z,19.57
2018-09-08T07:54:52.181Z,19.72
2018-09-08T07:57:20.650Z,20.00
2018-09-08T07:59:49.153Z,20.26
2018-09-08T08:02:17.534Z,20.50
2018-09-08T08:04:45.952Z,20.79
2018-09-08T08:07:15.261Z,21.04
2018-09-08T08:09:46.677Z,21.33
2018-09-08T08:12:15.104Z,21.51
2018-09-08T08:14:43.554Z,21.66
2018-09-08T08:17:11.997Z,21.79
2018-09-08T08:19:40.412Z,21.87
2018-09-08T08:22:08.831Z,21.83
2018-09-08T08:24:38.012Z,21.67
2018-09-08T08:28:23.561Z,21.47
2018-09-08T08:30:51.966Z,21.28
2018-09-08T08:33:20.546Z,21.20
2018-09-08T08:35:49.900Z,21.16
2018-09-08T08:38:26.498Z,21.14
2018-09-08T08:40:54.938Z,21.04
2018-09-08T08:43:23.386Z,21.14
2018-09-08T08:45:51.737Z,21.10
2018-09-08T08:48:20.202Z,21.08
2018-09-08T08:50:59.956Z,21.21
2018-09-08T08:53:39.809Z,21.24
2018-09-08T08:56:08.270Z,21.39
2018-09-08T08:58:36.714Z,21.27
2018-09-08T09:01:05.290Z,21.25
2018-09-08T09:03:33.728Z,21.20
2018-09-08T09:06:02.150Z,21.22
2018-09-08T09:08:30.953Z,21.27
2018-09-08T09:10:59.749Z,21.49
2018-09-08T09:13:28.523Z,21.61
2018-09-08T09:15:56.885Z,21.58
2018-09-08T09:18:37.972Z,21.69
2018-09-08T09:21:17.168Z,21.91
2018-09-08T09:25:01.989Z,22.02
2018-09-08T09:27:31.689Z,21.96
2018-09-08T09:30:00.401Z,22.08
2018-09-08T09:32:28.805Z,22.24
2018-09-08T09:34:57.197Z,22.41
2018-09-08T09:37:25.686Z,22.49
2018-09-08T09:39:54.789Z,22.41
2018-09-08T09:42:23.173Z,22.45
2018-09-08T09:44:51.587Z,22.38
2018-09-08T09:47:20.265Z,22.21
2018-09-08T09:49:48.762Z,22.10
2018-09-08T09:52:17.244Z,21.96
2018-09-08T09:54:45.756Z,21.89
2018-09-08T09:57:14.217Z,22.00
2018-09-08T09:59:42.696Z,21.99
2018-09-08T10:03:15.586Z,22.08
2018-09-08T10:05:43.985Z,22.16
2018-09-08T10:08:12.345Z,22.14
2018-09-08T10:10:40.756Z,22.14
2018-09-08T10:13:09.133Z,22.27
2018-09-08T10:15:37.561Z,22.19
2018-09-08T10:18:06.031Z,22.36
2018-09-08T10:20:34.728Z,22.36
2018-09-08T10:23:03.219Z,22.31
2018-09-08T10:25:31.521Z,22.46
2018-09-08T10:27:59.937Z,22.46
2018-09-08T10:30:28.376Z,22.65
2018-09-08T10:32:57.133Z,22.73
2018-09-08T10:35:27.270Z,22.64
2018-09-08T10:37:56.185Z,22.27
2018-09-08T10:40:24.590Z,22.05
2018-09-08T10:42:52.996Z,21.97
2018-09-08T10:45:21.402Z,21.95
2018-09-08T10:47:50.525Z,22.07
2018-09-08T10:50:18.900Z,22.21
2018-09-08T10:52:48.361Z,22.42
2018-09-08T10:55:16.728Z,22.51
2018-09-08T10:57:45.141Z,22.74
2018-09-08T11:00:13.869Z,22.92
2018-09-08T11:02:43.476Z,22.87
2018-09-08T11:05:11.716Z,22.75
2018-09-08T11:07:40.103Z,22.64
2018-09-08T11:10:08.513Z,22.50
2018-09-08T11:12:36.928Z,22.46
2018-09-08T11:15:06.215Z,22.49
2018-09-08T11:17:35.193Z,22.49
2018-09-08T11:20:05.280Z,22.41
2018-09-08T11:22:33.697Z,22.44
2018-09-08T11:25:02.083Z,22.37
2018-09-08T11:27:30.502Z,22.38
2018-09-08T11:29:59.417Z,22.30
2018-09-08T11:32:28.541Z,22.30
2018-09-08T11:34:56.971Z,22.27
2018-09-08T11:37:25.429Z,22.27
2018-09-08T11:39:53.844Z,22.25
2018-09-08T11:42:22.231Z,22.21
2018-09-08T11:44:50.831Z,22.24
2018-09-08T11:47:19.190Z,22.26
2018-09-08T11:49:51.603Z,22.35
2018-09-08T11:52:20.985Z,22.50
2018-09-08T11:54:49.397Z,22.66
2018-09-08T11:57:17.773Z,22.70
2018-09-08T11:59:46.174Z,22.65
2018-09-08T12:02:14.578Z,22.62
2018-09-08T12:04:42.985Z,22.73
2018-09-08T12:07:11.361Z,22.71
2018-09-08T12:09:39.757Z,22.57
2018-09-08T12:12:08.128Z,22.54
2018-09-08T12:14:36.672Z,22.43
2018-09-08T12:17:05.062Z,22.46
2018-09-08T12:19:33.441Z,22.51
2018-09-08T12:22:01.863Z,22.55
2018-09-08T12:24:30.352Z,22.62
2018-09-08T12:26:58.749Z,22.71
2018-09-08T12:29:27.108Z,22.78
2018-09-08T12:31:55.554Z,22.89
2018-09-08T12:34:24.029Z,23.05
2018-09-08T12:36:52.424Z,23.04
2018-09-08T12:39:20.792Z,23.00
2018-09-08T12:41:49.515Z,23.04
2018-09-08T12:44:18.052Z,23.12
2018-09-08T12:46:47.720Z,23.18
2018-09-08T12:49:16.093Z,23.33
2018-09-08T12:51:44.493Z,23.39
2018-09-08T12:54:12.845Z,23.23
2018-09-08T12:56:41.253Z,23.10
2018-09-08T12:59:09.833Z,23.16
2018-09-08T13:01:38.217Z,23.21
2018-09-08T13:04:06.874Z,23.30
2018-09-08T13:06:35.305Z,23.49
2018-09-08T13:09:04.486Z,23.63
2018-09-08T13:11:32.841Z,23.78
2018-09-08T13:14:01.512Z,23.79
2018-09-08T13:16:29.906Z,23.85
2018-09-08T13:18:58.473Z,23.96
2018-09-08T13:21:26.853Z,23.99
2018-09-08T13:23:55.250Z,23.87
2018-09-08T13:26:23.622Z,23.71
2018-09-08T13:28:52.131Z,23.42
2018-09-08T13:31:20.536Z,23.22
2018-09-08T13:33:48.940Z,23.08
2018-09-08T13:36:17.306Z,23.04
2018-09-08T13:38:46.249Z,23.05
2018-09-08T13:41:14.616Z,23.07
2018-09-08T13:43:43.555Z,23.12
2018-09-08T13:46:11.937Z,23.18
2018-09-08T13:48:40.350Z,23.11
2018-09-08T13:51:08.726Z,23.14
2018-09-08T13:53:37.132Z,23.18
2018-09-08T13:56:05.609Z,23.20
2018-09-08T13:58:34.135Z,23.25
2018-09-08T14:01:02.749Z,23.27
2018-09-08T14:03:31.289Z,23.65
2018-09-08T14:05:59.657Z,24.09
2018-09-08T14:08:28.121Z,24.56
2018-09-08T14:10:57.023Z,24.94
2018-09-08T14:13:25.392Z,25.25
2018-09-08T14:15:53.776Z,25.31
2018-09-08T14:21:15.120Z,25.42
2018-09-08T14:23:43.564Z,25.36
2018-09-08T14:26:11.965Z,25.49
2018-09-08T14:28:40.408Z,25.78
2018-09-08T14:31:08.773Z,25.79
2018-09-08T14:33:37.134Z,25.65
2018-09-08T14:36:05.577Z,25.65
2018-09-08T14:38:34.012Z,25.91
2018-09-08T14:41:02.445Z,26.22
2018-09-08T14:43:31.076Z,26.24
2018-09-08T14:45:59.486Z,26.46
2018-09-08T14:48:27.865Z,26.34
2018-09-08T14:50:56.277Z,26.02
2018-09-08T14:53:24.645Z,25.65
2018-09-08T14:55:53.070Z,25.37
2018-09-08T14:58:22.173Z,25.11
2018-09-08T15:00:50.579Z,24.93
2018-09-08T15:03:19.232Z,24.74
2018-09-08T15:05:47.897Z,24.64
2018-09-08T15:08:17.927Z,24.74
2018-09-08T15:10:46.297Z,25.75
2018-09-08T15:13:14.689Z,26.88
2018-09-08T15:15:43.056Z,27.90
2018-09-08T15:18:11.461Z,28.72
2018-09-08T15:20:39.841Z,29.45
2018-09-08T15:23:08.233Z,30.03
2018-09-08T15:25:36.614Z,30.97
2018-09-08T15:28:08.202Z,32.17
2018-09-08T15:30:36.860Z,33.08
2018-09-08T15:33:06.213Z,33.86
2018-09-08T15:35:34.613Z,34.35
2018-09-08T15:38:03.106Z,35.33
2018-09-08T15:40:31.485Z,37.21
2018-09-08T15:42:59.902Z,36.73
2018-09-08T15:45:28.402Z,38.08
2018-09-08T15:47:56.772Z,38.00
2018-09-08T15:50:25.153Z,38.25
2018-09-08T15:52:53.988Z,37.81
2018-09-08T15:55:22.358Z,35.95
2018-09-08T15:57:51.148Z,35.96
2018-09-08T16:00:19.817Z,37.94
2018-09-08T16:02:48.193Z,38.96
2018-09-08T16:05:16.588Z,38.46
2018-09-08T16:07:44.993Z,39.64
2018-09-08T16:10:13.413Z,39.23
2018-09-08T16:12:41.797Z,39.80
2018-09-08T16:15:10.318Z,40.36
2018-09-08T16:17:39.392Z,39.57
2018-09-08T16:20:07.894Z,37.87
2018-09-08T16:22:36.306Z,40.54
2018-09-08T16:25:05.423Z,40.78
2018-09-08T16:27:33.823Z,39.34
2018-09-08T16:30:02.336Z,39.18
2018-09-08T16:32:30.697Z,39.65
2018-09-08T16:34:59.113Z,39.17
2018-09-08T16:37:30.582Z,39.21
2018-09-08T16:39:59.046Z,35.53
2018-09-08T16:42:27.430Z,33.46
2018-09-08T16:44:55.897Z,31.17
2018-09-08T16:47:24.252Z,29.20
2018-09-08T16:49:52.651Z,27.97
2018-09-08T16:52:21.037Z,27.11
2018-09-08T16:54:49.569Z,26.78
2018-09-08T16:57:17.937Z,26.26
2018-09-08T16:59:46.318Z,25.84
2018-09-08T17:02:14.767Z,25.45
2018-09-08T17:04:43.141Z,25.13
2018-09-08T17:07:11.576Z,24.87
2018-09-08T17:09:39.937Z,24.62
2018-09-08T17:12:08.329Z,24.44
2018-09-08T17:14:36.717Z,24.30
2018-09-08T17:17:05.154Z,24.05
2018-09-08T17:19:33.525Z,23.89
2018-09-08T17:22:01.925Z,23.74
2018-09-08T17:24:30.301Z,23.53
2018-09-08T17:26:59.305Z,23.28
2018-09-08T17:29:28.003Z,23.21
2018-09-08T17:31:56.827Z,23.12
2018-09-08T17:34:26.043Z,22.91
2018-09-08T17:36:55.661Z,22.93
2018-09-08T17:39:24.399Z,22.90
2018-09-08T17:41:53.316Z,22.82
2018-09-08T17:44:22.731Z,22.65
2018-09-08T17:46:51.866Z,22.48
2018-09-08T17:49:20.656Z,22.38
2018-09-08T17:51:49.939Z,22.41
2018-09-08T17:54:18.324Z,22.30
2018-09-08T17:56:46.713Z,22.27
2018-09-08T17:59:15.357Z,22.27
2018-09-08T18:01:43.757Z,22.29
2018-09-08T18:04:12.169Z,22.26
2018-09-08T18:06:40.541Z,22.13
2018-09-08T18:09:08.969Z,22.15
2018-09-08T18:11:37.396Z,22.00
2018-09-08T18:14:05.794Z,21.93
2018-09-08T18:16:34.300Z,21.80
2018-09-08T18:19:03.682Z,21.71
2018-09-08T18:21:32.048Z,21.71
2018-09-08T18:24:00.433Z,21.75
2018-09-08T18:26:28.938Z,21.68
2018-09-08T18:28:57.357Z,21.61
2018-09-08T18:31:25.733Z,21.59
2018-09-08T18:33:54.145Z,21.51
2018-09-08T18:36:23.800Z,21.52
2018-09-08T18:38:52.276Z,21.47
2018-09-08T18:41:20.668Z,21.49
2018-09-08T18:43:49.157Z,21.51
2018-09-08T18:46:17.508Z,21.46
2018-09-08T18:48:45.997Z,21.37
2018-09-08T18:51:14.428Z,21.36
2018-09-08T18:53:42.848Z,21.26
2018-09-08T18:56:11.214Z,21.32
2018-09-08T18:58:39.589Z,21.31
2018-09-08T19:01:08.038Z,21.24
2018-09-08T19:03:36.409Z,21.21
2018-09-08T19:06:04.856Z,21.09
2018-09-08T19:08:38.411Z,21.02
2018-09-08T19:11:06.924Z,20.96
2018-09-08T19:13:35.257Z,20.90
2018-09-08T19:16:03.668Z,20.91
2018-09-08T19:18:32.393Z,20.96
2018-09-08T19:21:00.781Z,20.97
2018-09-08T19:23:29.161Z,20.96
2018-09-08T19:25:57.566Z,21.01
2018-09-08T19:28:25.932Z,20.98
2018-09-08T19:30:54.376Z,20.86
2018-09-08T19:33:22.737Z,20.83
2018-09-08T19:35:51.157Z,20.80
2018-09-08T19:38:19.522Z,20.80
2018-09-08T19:40:48.782Z,20.78
2018-09-08T19:43:17.160Z,20.72
2018-09-08T19:45:45.566Z,20.72
2018-09-08T19:48:15.552Z,20.69
2018-09-08T19:50:43.937Z,20.67
2018-09-08T19:53:17.944Z,20.58
2018-09-08T19:55:46.368Z,20.59
2018-09-08T19:58:20.066Z,20.61
2018-09-08T20:00:48.561Z,20.48
2018-09-08T20:03:16.958Z,20.44
2018-09-08T20:05:45.454Z,20.42
2018-09-08T20:08:13.948Z,20.41
2018-09-08T20:10:42.317Z,20.44
2018-09-08T20:13:10.730Z,20.45
2018-09-08T20:15:39.154Z,20.51
2018-09-08T20:18:07.573Z,20.40
2018-09-08T20:20:35.933Z,20.45
2018-09-08T20:23:07.348Z,20.43
2018-09-08T20:25:35.809Z,20.36
2018-09-08T20:28:04.232Z,20.36
2018-09-08T20:30:32.616Z,20.30
2018-09-08T20:33:01.402Z,20.17
2018-09-08T20:35:29.773Z,20.10
2018-09-08T20:37:58.211Z,20.17
2018-09-08T20:40:26.597Z,20.26
2018-09-08T20:42:55.021Z,20.25
2018-09-08T20:45:23.399Z,20.16
2018-09-08T20:47:51.873Z,20.08
2018-09-08T20:50:20.255Z,20.06
2018-09-08T20:52:48.681Z,20.07
2018-09-08T20:55:17.214Z,20.05
2018-09-08T20:57:45.586Z,20.11
2018-09-08T21:00:14.016Z,20.09
2018-09-08T21:02:42.430Z,19.94
2018-09-08T21:05:10.854Z,19.89
2018-09-08T21:07:39.439Z,19.99
2018-09-08T21:10:08.277Z,20.01
2018-09-08T21:12:36.670Z,19.93
2018-09-08T21:15:05.466Z,19.81
2018-09-08T21:17:33.877Z,19.79
2018-09-08T21:20:02.318Z,19.86
2018-09-08T21:22:30.692Z,19.89
2018-09-08T21:24:59.277Z,19.73
2018-09-08T21:27:27.725Z,19.55
2018-09-08T21:29:56.162Z,19.52
2018-09-08T21:32:24.544Z,19.58
2018-09-08T21:34:52.989Z,19.59
2018-09-08T21:37:21.372Z,19.64
2018-09-08T21:39:49.797Z,19.55
2018-09-08T21:42:18.257Z,19.53
2018-09-08T21:44:46.688Z,19.56
2018-09-08T21:47:15.154Z,19.65
2018-09-08T21:49:43.720Z,19.59
2018-09-08T21:52:12.161Z,19.58
2018-09-08T21:54:40.667Z,19.57
2018-09-08T21:57:09.574Z,19.54
2018-09-08T21:59:37.964Z,19.50
2018-09-08T22:02:06.483Z,19.50
2018-09-08T22:04:34.923Z,19.50
2018-09-08T22:07:04.059Z,19.46
2018-09-08T22:09:32.459Z,19.43
2018-09-08T22:12:00.955Z,19.31
2018-09-08T22:14:29.350Z,19.26
2018-09-08T22:16:57.956Z,19.28
2018-09-08T22:19:26.373Z,19.31
2018-09-08T22:21:54.826Z,19.29
2018-09-08T22:24:23.249Z,19.30
2018-09-08T22:26:51.620Z,19.24
2018-09-08T22:29:20.058Z,19.22
2018-09-08T22:31:48.466Z,19.23
2018-09-08T22:34:16.893Z,19.17
2018-09-08T22:36:45.282Z,19.15
2018-09-08T22:39:13.713Z,19.04
2018-09-08T22:41:42.116Z,19.01
2018-09-08T22:44:10.544Z,18.94
2018-09-08T22:46:38.933Z,18.88
2018-09-08T22:49:07.371Z,18.84
2018-09-08T22:51:35.769Z,18.85
2018-09-08T22:54:04.245Z,18.84
2018-09-08T22:56:32.649Z,18.75
2018-09-08T22:59:01.089Z,18.57
2018-09-08T23:01:29.513Z,18.42
2018-09-08T23:03:57.949Z,18.35
2018-09-08T23:06:26.608Z,18.29
2018-09-08T23:08:55.034Z,18.28
2018-09-08T23:11:23.439Z,18.27
2018-09-08T23:13:51.845Z,18.33
2018-09-08T23:16:20.261Z,18.35
2018-09-08T23:18:48.673Z,18.38
2018-09-08T23:21:17.125Z,18.29
2018-09-08T23:23:45.527Z,18.28
2018-09-08T23:26:13.945Z,18.24
2018-09-08T23:28:42.329Z,18.27
2018-09-08T23:31:10.733Z,18.24
2018-09-08T23:33:39.118Z,18.15
2018-09-08T23:36:07.545Z,18.06
2018-09-08T23:38:35.934Z,17.97
2018-09-08T23:41:04.374Z,17.96
2018-09-08T23:43:32.781Z,17.93
2018-09-08T23:46:01.961Z,17.99
2018-09-08T23:48:30.348Z,18.18
2018-09-08T23:50:58.749Z,18.19
2018-09-08T23:53:27.169Z,18.11
2018-09-08T23:55:55.592Z,18.04
2018-09-08T23:58:23.973Z,18.00
